sensor_id;sensor_type;location;lat;lon;timestamp;P1;durP1;ratioP1;P2;durP2;ratioP2
35126;SDS011;21300;52.006;5.798;2023-11-18T00:00:22;17.25;;;8.23;;
35126;SDS011;21300;52.006;5.798;2023-11-18T00:02:49;19.42;;;7.90;;
35126;SDS011;21300;52.006;5.798;2023-11-18T00:05:15;18.55;;;7.80;;
35126;SDS011;21300;52.006;5.798;2023-11-18T00:07:40;19.30;;;7.32;;
35126;SDS011;21300;52.006;5.798;2023-11-18T00:10:09;23.70;;;9.30;;
35126;SDS011;21300;52.006;5.798;2023-11-18T00:12:35;15.27;;;7.20;;
35126;SDS011;21300;52.006;5.798;2023-11-18T00:15:05;17.38;;;8.07;;
35126;SDS011;21300;52.006;5.798;2023-11-18T00:17:33;19.65;;;8.73;;
35126;SDS011;21300;52.006;5.798;2023-11-18T00:19:59;15.85;;;7.80;;
35126;SDS011;21300;52.006;5.798;2023-11-18T00:22:24;17.00;;;8.73;;
35126;SDS011;21300;52.006;5.798;2023-11-18T00:24:50;15.77;;;7.93;;
35126;SDS011;21300;52.006;5.798;2023-11-18T00:27:20;18.98;;;7.95;;
35126;SDS011;21300;52.006;5.798;2023-11-18T00:29:47;13.93;;;7.43;;
35126;SDS011;21300;52.006;5.798;2023-11-18T00:32:22;19.00;;;7.80;;
35126;SDS011;21300;52.006;5.798;2023-11-18T00:34:50;10.52;;;4.80;;
35126;SDS011;21300;52.006;5.798;2023-11-18T00:37:18;13.30;;;7.30;;
35126;SDS011;21300;52.006;5.798;2023-11-18T00:39:51;19.98;;;7.93;;
35126;SDS011;21300;52.006;5.798;2023-11-18T00:42:17;19.65;;;7.47;;
35126;SDS011;21300;52.006;5.798;2023-11-18T00:44:43;19.52;;;8.45;;
35126;SDS011;21300;52.006;5.798;2023-11-18T00:47:08;18.30;;;7.70;;
35126;SDS011;21300;52.006;5.798;2023-11-18T00:49:34;16.48;;;7.70;;
35126;SDS011;21300;52.006;5.798;2023-11-18T00:52:01;18.08;;;8.35;;
35126;SDS011;21300;52.006;5.798;2023-11-18T00:54:26;13.70;;;8.23;;
35126;SDS011;21300;52.006;5.798;2023-11-18T00:56:52;18.88;;;9.18;;
35126;SDS011;21300;52.006;5.798;2023-11-18T00:59:18;13.80;;;7.68;;
35126;SDS011;21300;52.006;5.798;2023-11-18T01:01:43;18.88;;;8.55;;
35126;SDS011;21300;52.006;5.798;2023-11-18T01:04:09;18.13;;;7.55;;
35126;SDS011;21300;52.006;5.798;2023-11-18T01:06:34;16.92;;;7.70;;
35126;SDS011;21300;52.006;5.798;2023-11-18T01:09:00;15.63;;;7.30;;
35126;SDS011;21300;52.006;5.798;2023-11-18T01:11:26;15.90;;;8.38;;
35126;SDS011;21300;52.006;5.798;2023-11-18T01:13:51;16.85;;;7.82;;
35126;SDS011;21300;52.006;5.798;2023-11-18T01:16:19;21.10;;;8.18;;
35126;SDS011;21300;52.006;5.798;2023-11-18T01:18:45;16.27;;;7.97;;
35126;SDS011;21300;52.006;5.798;2023-11-18T01:21:11;22.77;;;10.30;;
35126;SDS011;21300;52.006;5.798;2023-11-18T01:23:37;19.23;;;7.97;;
35126;SDS011;21300;52.006;5.798;2023-11-18T01:26:06;20.63;;;9.55;;
35126;SDS011;21300;52.006;5.798;2023-11-18T01:28:36;18.30;;;7.53;;
35126;SDS011;21300;52.006;5.798;2023-11-18T01:31:04;14.88;;;6.93;;
35126;SDS011;21300;52.006;5.798;2023-11-18T01:33:30;17.08;;;8.23;;
35126;SDS011;21300;52.006;5.798;2023-11-18T01:35:57;15.75;;;7.15;;
35126;SDS011;21300;52.006;5.798;2023-11-18T01:38:23;15.10;;;6.88;;
35126;SDS011;21300;52.006;5.798;2023-11-18T01:40:51;17.38;;;8.88;;
35126;SDS011;21300;52.006;5.798;2023-11-18T01:43:18;16.13;;;8.05;;
35126;SDS011;21300;52.006;5.798;2023-11-18T01:45:44;21.13;;;8.55;;
35126;SDS011;21300;52.006;5.798;2023-11-18T01:48:09;15.07;;;6.32;;
35126;SDS011;21300;52.006;5.798;2023-11-18T01:50:36;19.30;;;7.70;;
35126;SDS011;21300;52.006;5.798;2023-11-18T01:53:03;17.55;;;7.78;;
35126;SDS011;21300;52.006;5.798;2023-11-18T01:55:30;13.38;;;6.90;;
35126;SDS011;21300;52.006;5.798;2023-11-18T01:57:56;14.98;;;7.50;;
35126;SDS011;21300;52.006;5.798;2023-11-18T02:00:23;14.85;;;7.53;;
35126;SDS011;21300;52.006;5.798;2023-11-18T02:02:49;17.88;;;7.15;;
35126;SDS011;21300;52.006;5.798;2023-11-18T02:05:15;19.60;;;8.02;;
35126;SDS011;21300;52.006;5.798;2023-11-18T02:07:42;18.77;;;9.50;;
35126;SDS011;21300;52.006;5.798;2023-11-18T02:10:08;20.75;;;8.45;;
35126;SDS011;21300;52.006;5.798;2023-11-18T04:01:24;25.45;;;9.85;;
35126;SDS011;21300;52.006;5.798;2023-11-18T04:03:58;22.95;;;9.98;;
35126;SDS011;21300;52.006;5.798;2023-11-18T04:06:24;17.95;;;9.77;;
35126;SDS011;21300;52.006;5.798;2023-11-18T04:08:50;18.88;;;8.68;;
35126;SDS011;21300;52.006;5.798;2023-11-18T04:11:18;25.95;;;9.85;;
35126;SDS011;21300;52.006;5.798;2023-11-18T04:13:44;25.40;;;8.93;;
35126;SDS011;21300;52.006;5.798;2023-11-18T04:16:38;20.40;;;9.15;;
35126;SDS011;21300;52.006;5.798;2023-11-18T04:19:22;22.50;;;9.43;;
35126;SDS011;21300;52.006;5.798;2023-11-18T04:22:03;22.00;;;9.07;;
35126;SDS011;21300;52.006;5.798;2023-11-18T04:24:32;20.30;;;8.85;;
35126;SDS011;21300;52.006;5.798;2023-11-18T04:27:00;23.08;;;9.13;;
35126;SDS011;21300;52.006;5.798;2023-11-18T04:29:32;23.42;;;9.02;;
35126;SDS011;21300;52.006;5.798;2023-11-18T04:31:58;25.77;;;9.07;;
35126;SDS011;21300;52.006;5.798;2023-11-18T04:34:24;22.48;;;10.18;;
35126;SDS011;21300;52.006;5.798;2023-11-18T04:36:51;14.75;;;7.95;;
35126;SDS011;21300;52.006;5.798;2023-11-18T04:39:17;21.52;;;8.75;;
35126;SDS011;21300;52.006;5.798;2023-11-18T04:41:42;20.23;;;9.25;;
35126;SDS011;21300;52.006;5.798;2023-11-18T04:44:08;25.08;;;9.77;;
35126;SDS011;21300;52.006;5.798;2023-11-18T04:46:34;20.30;;;10.85;;
35126;SDS011;21300;52.006;5.798;2023-11-18T04:49:00;21.40;;;7.95;;
35126;SDS011;21300;52.006;5.798;2023-11-18T04:51:27;24.80;;;11.18;;
35126;SDS011;21300;52.006;5.798;2023-11-18T04:53:52;18.52;;;8.50;;
35126;SDS011;21300;52.006;5.798;2023-11-18T04:56:18;22.80;;;8.90;;
35126;SDS011;21300;52.006;5.798;2023-11-18T04:58:44;20.45;;;8.95;;
35126;SDS011;21300;52.006;5.798;2023-11-18T05:01:13;20.92;;;8.68;;
35126;SDS011;21300;52.006;5.798;2023-11-18T05:03:39;18.90;;;8.45;;
35126;SDS011;21300;52.006;5.798;2023-11-18T05:06:05;16.63;;;9.23;;
35126;SDS011;21300;52.006;5.798;2023-11-18T05:08:30;20.98;;;7.93;;
35126;SDS011;21300;52.006;5.798;2023-11-18T05:10:58;19.10;;;7.78;;
35126;SDS011;21300;52.006;5.798;2023-11-18T05:13:24;23.92;;;8.48;;
35126;SDS011;21300;52.006;5.798;2023-11-18T05:15:51;20.77;;;9.35;;
35126;SDS011;21300;52.006;5.798;2023-11-18T05:18:19;15.95;;;7.22;;
35126;SDS011;21300;52.006;5.798;2023-11-18T05:20:46;18.75;;;9.38;;
35126;SDS011;21300;52.006;5.798;2023-11-18T05:23:12;20.52;;;8.57;;
35126;SDS011;21300;52.006;5.798;2023-11-18T05:25:41;15.48;;;7.47;;
35126;SDS011;21300;52.006;5.798;2023-11-18T05:28:08;17.05;;;8.65;;
35126;SDS011;21300;52.006;5.798;2023-11-18T05:30:37;15.52;;;8.77;;
35126;SDS011;21300;52.006;5.798;2023-11-18T05:33:06;20.90;;;8.68;;
35126;SDS011;21300;52.006;5.798;2023-11-18T05:35:32;22.45;;;9.23;;
35126;SDS011;21300;52.006;5.798;2023-11-18T05:37:58;15.63;;;8.13;;
35126;SDS011;21300;52.006;5.798;2023-11-18T05:40:25;15.13;;;7.13;;
35126;SDS011;21300;52.006;5.798;2023-11-18T05:42:51;19.05;;;8.43;;
35126;SDS011;21300;52.006;5.798;2023-11-18T05:45:18;14.63;;;7.28;;
35126;SDS011;21300;52.006;5.798;2023-11-18T05:47:56;20.30;;;9.23;;
35126;SDS011;21300;52.006;5.798;2023-11-18T05:50:25;16.98;;;8.68;;
35126;SDS011;21300;52.006;5.798;2023-11-18T05:52:51;14.38;;;7.40;;
35126;SDS011;21300;52.006;5.798;2023-11-18T05:55:18;21.95;;;8.20;;
35126;SDS011;21300;52.006;5.798;2023-11-18T05:57:43;18.52;;;8.43;;
35126;SDS011;21300;52.006;5.798;2023-11-18T06:00:10;18.40;;;8.18;;
35126;SDS011;21300;52.006;5.798;2023-11-18T06:02:40;19.67;;;8.27;;
35126;SDS011;21300;52.006;5.798;2023-11-18T06:05:06;18.83;;;8.50;;
35126;SDS011;21300;52.006;5.798;2023-11-18T06:07:37;20.08;;;9.35;;
35126;SDS011;21300;52.006;5.798;2023-11-18T06:10:05;17.88;;;8.38;;
35126;SDS011;21300;52.006;5.798;2023-11-18T06:12:32;15.70;;;8.35;;
35126;SDS011;21300;52.006;5.798;2023-11-18T06:14:58;17.10;;;8.45;;
35126;SDS011;21300;52.006;5.798;2023-11-18T06:17:24;20.25;;;8.45;;
35126;SDS011;21300;52.006;5.798;2023-11-18T06:19:50;13.93;;;6.93;;
35126;SDS011;21300;52.006;5.798;2023-11-18T06:22:15;16.60;;;9.20;;
35126;SDS011;21300;52.006;5.798;2023-11-18T06:24:44;17.48;;;8.32;;
35126;SDS011;21300;52.006;5.798;2023-11-18T06:27:09;18.92;;;8.98;;
35126;SDS011;21300;52.006;5.798;2023-11-18T06:29:35;16.80;;;8.13;;
35126;SDS011;21300;52.006;5.798;2023-11-18T06:32:01;18.30;;;9.57;;
35126;SDS011;21300;52.006;5.798;2023-11-18T06:34:26;25.83;;;10.30;;
35126;SDS011;21300;52.006;5.798;2023-11-18T06:36:52;21.83;;;9.35;;
35126;SDS011;21300;52.006;5.798;2023-11-18T06:39:18;23.50;;;9.45;;
35126;SDS011;21300;52.006;5.798;2023-11-18T06:41:54;23.02;;;8.95;;
35126;SDS011;21300;52.006;5.798;2023-11-18T06:44:19;16.73;;;8.55;;
35126;SDS011;21300;52.006;5.798;2023-11-18T06:46:48;18.40;;;9.48;;
35126;SDS011;21300;52.006;5.798;2023-11-18T06:49:16;17.77;;;9.32;;
35126;SDS011;21300;52.006;5.798;2023-11-18T06:51:42;22.02;;;8.68;;
35126;SDS011;21300;52.006;5.798;2023-11-18T06:54:07;16.75;;;7.90;;
35126;SDS011;21300;52.006;5.798;2023-11-18T06:56:34;23.23;;;10.57;;
35126;SDS011;21300;52.006;5.798;2023-11-18T06:59:06;19.52;;;9.13;;
35126;SDS011;21300;52.006;5.798;2023-11-18T07:01:32;19.83;;;9.35;;
35126;SDS011;21300;52.006;5.798;2023-11-18T07:04:01;18.25;;;8.95;;
35126;SDS011;21300;52.006;5.798;2023-11-18T07:06:27;17.25;;;9.68;;
35126;SDS011;21300;52.006;5.798;2023-11-18T07:08:53;22.77;;;9.60;;
35126;SDS011;21300;52.006;5.798;2023-11-18T07:11:25;22.70;;;9.68;;
35126;SDS011;21300;52.006;5.798;2023-11-18T07:13:51;19.27;;;8.32;;
35126;SDS011;21300;52.006;5.798;2023-11-18T07:16:21;17.98;;;9.52;;
35126;SDS011;21300;52.006;5.798;2023-11-18T07:18:50;24.27;;;9.60;;
35126;SDS011;21300;52.006;5.798;2023-11-18T07:21:19;18.85;;;8.90;;
35126;SDS011;21300;52.006;5.798;2023-11-18T07:23:45;21.30;;;10.05;;
35126;SDS011;21300;52.006;5.798;2023-11-18T07:26:11;19.95;;;9.15;;
35126;SDS011;21300;52.006;5.798;2023-11-18T07:28:38;20.92;;;10.35;;
35126;SDS011;21300;52.006;5.798;2023-11-18T07:31:04;24.15;;;10.38;;
35126;SDS011;21300;52.006;5.798;2023-11-18T07:33:30;18.33;;;8.23;;
35126;SDS011;21300;52.006;5.798;2023-11-18T07:35:57;17.75;;;9.07;;
35126;SDS011;21300;52.006;5.798;2023-11-18T07:38:23;18.92;;;10.43;;
35126;SDS011;21300;52.006;5.798;2023-11-18T07:40:52;19.40;;;9.75;;
35126;SDS011;21300;52.006;5.798;2023-11-18T07:43:21;17.20;;;9.98;;
35126;SDS011;21300;52.006;5.798;2023-11-18T07:45:47;17.73;;;8.85;;
35126;SDS011;21300;52.006;5.798;2023-11-18T07:48:18;20.02;;;10.32;;
35126;SDS011;21300;52.006;5.798;2023-11-18T07:50:45;19.98;;;7.88;;
35126;SDS011;21300;52.006;5.798;2023-11-18T07:53:12;16.63;;;8.63;;
35126;SDS011;21300;52.006;5.798;2023-11-18T07:55:41;13.57;;;7.30;;
35126;SDS011;21300;52.006;5.798;2023-11-18T07:58:07;15.57;;;7.30;;
35126;SDS011;21300;52.006;5.798;2023-11-18T08:00:40;13.95;;;7.40;;
35126;SDS011;21300;52.006;5.798;2023-11-18T08:03:06;13.85;;;7.47;;
35126;SDS011;21300;52.006;5.798;2023-11-18T08:05:36;16.38;;;9.00;;
35126;SDS011;21300;52.006;5.798;2023-11-18T08:08:04;13.70;;;6.68;;
35126;SDS011;21300;52.006;5.798;2023-11-18T08:10:39;12.65;;;6.07;;
35126;SDS011;21300;52.006;5.798;2023-11-18T08:13:05;15.82;;;6.78;;
35126;SDS011;21300;52.006;5.798;2023-11-18T08:15:32;13.35;;;6.00;;
35126;SDS011;21300;52.006;5.798;2023-11-18T08:17:59;12.38;;;6.38;;
35126;SDS011;21300;52.006;5.798;2023-11-18T08:20:25;14.55;;;6.60;;
35126;SDS011;21300;52.006;5.798;2023-11-18T08:22:51;13.82;;;6.95;;
35126;SDS011;21300;52.006;5.798;2023-11-18T08:25:17;12.52;;;6.82;;
35126;SDS011;21300;52.006;5.798;2023-11-18T08:27:45;10.00;;;5.88;;
35126;SDS011;21300;52.006;5.798;2023-11-18T08:30:11;11.00;;;5.78;;
35126;SDS011;21300;52.006;5.798;2023-11-18T08:32:43;8.40;;;4.85;;
35126;SDS011;21300;52.006;5.798;2023-11-18T08:35:10;13.25;;;6.20;;
35126;SDS011;21300;52.006;5.798;2023-11-18T08:37:38;8.95;;;5.03;;
35126;SDS011;21300;52.006;5.798;2023-11-18T08:40:06;12.65;;;5.75;;
35126;SDS011;21300;52.006;5.798;2023-11-18T08:42:46;12.27;;;6.03;;
35126;SDS011;21300;52.006;5.798;2023-11-18T08:45:25;13.15;;;5.60;;
35126;SDS011;21300;52.006;5.798;2023-11-18T08:47:58;12.73;;;5.47;;
35126;SDS011;21300;52.006;5.798;2023-11-18T08:50:27;15.65;;;7.40;;
35126;SDS011;21300;52.006;5.798;2023-11-18T08:52:54;9.70;;;6.00;;
35126;SDS011;21300;52.006;5.798;2023-11-18T08:55:23;13.32;;;5.93;;
35126;SDS011;21300;52.006;5.798;2023-11-18T08:58:03;10.90;;;5.00;;
35126;SDS011;21300;52.006;5.798;2023-11-18T09:00:40;8.57;;;5.43;;
35126;SDS011;21300;52.006;5.798;2023-11-18T09:03:10;11.23;;;5.15;;
35126;SDS011;21300;52.006;5.798;2023-11-18T09:05:46;8.93;;;4.85;;
35126;SDS011;21300;52.006;5.798;2023-11-18T09:08:31;10.18;;;5.20;;
35126;SDS011;21300;52.006;5.798;2023-11-18T09:11:03;13.68;;;5.80;;
35126;SDS011;21300;52.006;5.798;2023-11-18T09:13:31;11.25;;;5.30;;
35126;SDS011;21300;52.006;5.798;2023-11-18T09:16:00;9.82;;;4.93;;
35126;SDS011;21300;52.006;5.798;2023-11-18T09:18:30;13.00;;;6.07;;
35126;SDS011;21300;52.006;5.798;2023-11-18T09:20:58;12.95;;;4.80;;
35126;SDS011;21300;52.006;5.798;2023-11-18T09:23:32;14.57;;;5.90;;
35126;SDS011;21300;52.006;5.798;2023-11-18T09:26:06;14.25;;;4.68;;
35126;SDS011;21300;52.006;5.798;2023-11-18T09:28:37;12.90;;;5.95;;
35126;SDS011;21300;52.006;5.798;2023-11-18T09:33:38;13.27;;;4.93;;
35126;SDS011;21300;52.006;5.798;2023-11-18T09:46:31;10.45;;;4.85;;
35126;SDS011;21300;52.006;5.798;2023-11-18T09:51:58;10.30;;;5.55;;
35126;SDS011;21300;52.006;5.798;2023-11-18T09:59:58;12.50;;;5.63;;
35126;SDS011;21300;52.006;5.798;2023-11-18T10:02:39;11.02;;;4.85;;
35126;SDS011;21300;52.006;5.798;2023-11-18T10:05:06;11.18;;;5.00;;
35126;SDS011;21300;52.006;5.798;2023-11-18T10:07:38;13.50;;;5.57;;
35126;SDS011;21300;52.006;5.798;2023-11-18T10:10:06;11.20;;;5.20;;
35126;SDS011;21300;52.006;5.798;2023-11-18T10:12:40;10.60;;;4.95;;
35126;SDS011;21300;52.006;5.798;2023-11-18T10:15:08;8.45;;;4.88;;
35126;SDS011;21300;52.006;5.798;2023-11-18T10:17:38;13.88;;;5.60;;
35126;SDS011;21300;52.006;5.798;2023-11-18T10:23:09;9.80;;;4.82;;
35126;SDS011;21300;52.006;5.798;2023-11-18T10:25:36;13.32;;;5.28;;
35126;SDS011;21300;52.006;5.798;2023-11-18T10:28:06;12.20;;;4.65;;
35126;SDS011;21300;52.006;5.798;2023-11-18T10:30:42;10.73;;;3.67;;
35126;SDS011;21300;52.006;5.798;2023-11-18T10:33:11;9.32;;;4.47;;
35126;SDS011;21300;52.006;5.798;2023-11-18T10:35:48;6.25;;;3.58;;
35126;SDS011;21300;52.006;5.798;2023-11-18T10:38:16;10.52;;;4.32;;
35126;SDS011;21300;52.006;5.798;2023-11-18T10:40:42;8.48;;;3.97;;
35126;SDS011;21300;52.006;5.798;2023-11-18T10:43:09;11.43;;;4.13;;
35126;SDS011;21300;52.006;5.798;2023-11-18T10:45:35;8.13;;;3.72;;
35126;SDS011;21300;52.006;5.798;2023-11-18T10:48:07;9.88;;;3.30;;
35126;SDS011;21300;52.006;5.798;2023-11-18T10:50:33;7.97;;;3.53;;
35126;SDS011;21300;52.006;5.798;2023-11-18T10:52:59;7.18;;;3.92;;
35126;SDS011;21300;52.006;5.798;2023-11-18T10:55:36;7.88;;;3.30;;
35126;SDS011;21300;52.006;5.798;2023-11-18T10:58:05;6.75;;;3.35;;
35126;SDS011;21300;52.006;5.798;2023-11-18T11:00:50;8.90;;;3.75;;
35126;SDS011;21300;52.006;5.798;2023-11-18T11:03:20;7.20;;;3.17;;
35126;SDS011;21300;52.006;5.798;2023-11-18T11:05:48;5.25;;;2.90;;
35126;SDS011;21300;52.006;5.798;2023-11-18T11:08:19;8.88;;;3.13;;
35126;SDS011;21300;52.006;5.798;2023-11-18T11:10:45;6.22;;;2.80;;
35126;SDS011;21300;52.006;5.798;2023-11-18T11:13:13;7.95;;;3.70;;
35126;SDS011;21300;52.006;5.798;2023-11-18T11:15:43;5.93;;;3.28;;
35126;SDS011;21300;52.006;5.798;2023-11-18T11:18:12;7.30;;;2.90;;
35126;SDS011;21300;52.006;5.798;2023-11-18T11:20:53;6.22;;;3.15;;
35126;SDS011;21300;52.006;5.798;2023-11-18T11:28:46;9.25;;;3.47;;
35126;SDS011;21300;52.006;5.798;2023-11-18T11:31:23;4.88;;;2.95;;
35126;SDS011;21300;52.006;5.798;2023-11-18T11:34:06;8.50;;;3.78;;
35126;SDS011;21300;52.006;5.798;2023-11-18T11:36:48;8.15;;;2.95;;
35126;SDS011;21300;52.006;5.798;2023-11-18T11:39:16;5.82;;;2.92;;
35126;SDS011;21300;52.006;5.798;2023-11-18T11:41:43;9.07;;;3.20;;
35126;SDS011;21300;52.006;5.798;2023-11-18T11:44:11;7.10;;;3.35;;
35126;SDS011;21300;52.006;5.798;2023-11-18T11:46:40;5.43;;;3.22;;
35126;SDS011;21300;52.006;5.798;2023-11-18T11:49:07;6.43;;;3.25;;
35126;SDS011;21300;52.006;5.798;2023-11-18T11:54:59;9.18;;;3.63;;
35126;SDS011;21300;52.006;5.798;2023-11-18T11:57:32;6.90;;;3.33;;
35126;SDS011;21300;52.006;5.798;2023-11-18T12:00:00;7.65;;;3.85;;
35126;SDS011;21300;52.006;5.798;2023-11-18T12:02:40;10.80;;;3.65;;
35126;SDS011;21300;52.006;5.798;2023-11-18T12:05:19;8.90;;;3.65;;
35126;SDS011;21300;52.006;5.798;2023-11-18T12:07:50;10.73;;;3.17;;
35126;SDS011;21300;52.006;5.798;2023-11-18T12:10:19;7.80;;;3.95;;
35126;SDS011;21300;52.006;5.798;2023-11-18T12:12:48;6.95;;;3.80;;
35126;SDS011;21300;52.006;5.798;2023-11-18T12:15:14;5.53;;;3.17;;
35126;SDS011;21300;52.006;5.798;2023-11-18T12:20:39;6.45;;;3.05;;
35126;SDS011;21300;52.006;5.798;2023-11-18T12:23:20;7.15;;;3.25;;
35126;SDS011;21300;52.006;5.798;2023-11-18T12:25:52;4.70;;;3.00;;
35126;SDS011;21300;52.006;5.798;2023-11-18T12:28:30;3.55;;;2.85;;
35126;SDS011;21300;52.006;5.798;2023-11-18T12:31:00;8.43;;;3.88;;
35126;SDS011;21300;52.006;5.798;2023-11-18T12:39:16;7.68;;;2.55;;
35126;SDS011;21300;52.006;5.798;2023-11-18T12:42:01;6.85;;;2.58;;
35126;SDS011;21300;52.006;5.798;2023-11-18T12:47:45;4.43;;;2.33;;
35126;SDS011;21300;52.006;5.798;2023-11-18T12:50:14;5.35;;;2.58;;
35126;SDS011;21300;52.006;5.798;2023-11-18T12:52:51;6.65;;;3.22;;
35126;SDS011;21300;52.006;5.798;2023-11-18T12:55:17;4.95;;;3.13;;
35126;SDS011;21300;52.006;5.798;2023-11-18T12:57:47;7.28;;;2.95;;
35126;SDS011;21300;52.006;5.798;2023-11-18T13:00:14;4.07;;;2.17;;
35126;SDS011;21300;52.006;5.798;2023-11-18T13:02:51;4.10;;;2.33;;
35126;SDS011;21300;52.006;5.798;2023-11-18T13:05:22;4.38;;;3.15;;
35126;SDS011;21300;52.006;5.798;2023-11-18T13:07:48;5.22;;;2.15;;
35126;SDS011;21300;52.006;5.798;2023-11-18T13:10:14;5.80;;;2.47;;
35126;SDS011;21300;52.006;5.798;2023-11-18T13:12:42;7.53;;;2.30;;
35126;SDS011;21300;52.006;5.798;2023-11-18T13:15:10;4.40;;;2.47;;
35126;SDS011;21300;52.006;5.798;2023-11-18T13:17:41;6.55;;;2.20;;
35126;SDS011;21300;52.006;5.798;2023-11-18T13:20:32;3.75;;;2.10;;
35126;SDS011;21300;52.006;5.798;2023-11-18T13:23:00;5.03;;;2.00;;
35126;SDS011;21300;52.006;5.798;2023-11-18T13:25:35;3.55;;;2.03;;
35126;SDS011;21300;52.006;5.798;2023-11-18T13:28:03;2.92;;;2.20;;
35126;SDS011;21300;52.006;5.798;2023-11-18T13:30:30;3.38;;;1.60;;
35126;SDS011;21300;52.006;5.798;2023-11-18T13:32:56;3.97;;;1.95;;
35126;SDS011;21300;52.006;5.798;2023-11-18T13:35:22;5.80;;;2.85;;
35126;SDS011;21300;52.006;5.798;2023-11-18T13:37:49;3.00;;;1.73;;
35126;SDS011;21300;52.006;5.798;2023-11-18T13:40:15;5.55;;;2.40;;
35126;SDS011;21300;52.006;5.798;2023-11-18T13:42:43;3.78;;;1.48;;
35126;SDS011;21300;52.006;5.798;2023-11-18T13:45:11;3.47;;;1.85;;
35126;SDS011;21300;52.006;5.798;2023-11-18T13:47:48;3.65;;;1.52;;
35126;SDS011;21300;52.006;5.798;2023-11-18T13:50:20;4.32;;;2.10;;
35126;SDS011;21300;52.006;5.798;2023-11-18T13:52:46;1.48;;;1.23;;
35126;SDS011;21300;52.006;5.798;2023-11-18T13:55:14;5.15;;;1.35;;
35126;SDS011;21300;52.006;5.798;2023-11-18T13:57:51;3.90;;;2.15;;
35126;SDS011;21300;52.006;5.798;2023-11-18T14:00:19;7.57;;;2.63;;
35126;SDS011;21300;52.006;5.798;2023-11-18T14:02:48;2.83;;;1.42;;
35126;SDS011;21300;52.006;5.798;2023-11-18T14:05:15;3.60;;;1.60;;
35126;SDS011;21300;52.006;5.798;2023-11-18T14:07:41;3.25;;;1.70;;
35126;SDS011;21300;52.006;5.798;2023-11-18T14:10:08;2.20;;;1.17;;
35126;SDS011;21300;52.006;5.798;2023-11-18T14:12:38;4.70;;;1.38;;
35126;SDS011;21300;52.006;5.798;2023-11-18T14:15:05;2.38;;;1.45;;
35126;SDS011;21300;52.006;5.798;2023-11-18T14:17:34;3.75;;;1.83;;
35126;SDS011;21300;52.006;5.798;2023-11-18T14:20:01;1.45;;;0.88;;
35126;SDS011;21300;52.006;5.798;2023-11-18T14:22:27;1.60;;;0.85;;
35126;SDS011;21300;52.006;5.798;2023-11-18T14:24:53;1.35;;;1.02;;
35126;SDS011;21300;52.006;5.798;2023-11-18T14:27:18;1.92;;;1.17;;
35126;SDS011;21300;52.006;5.798;2023-11-18T14:29:44;2.22;;;1.13;;
35126;SDS011;21300;52.006;5.798;2023-11-18T14:32:11;1.42;;;0.90;;
35126;SDS011;21300;52.006;5.798;2023-11-18T14:34:39;3.47;;;0.85;;
35126;SDS011;21300;52.006;5.798;2023-11-18T14:37:07;1.17;;;0.73;;
35126;SDS011;21300;52.006;5.798;2023-11-18T14:39:32;1.70;;;0.65;;
35126;SDS011;21300;52.006;5.798;2023-11-18T14:42:00;1.33;;;0.80;;
35126;SDS011;21300;52.006;5.798;2023-11-18T14:44:26;1.60;;;0.80;;
35126;SDS011;21300;52.006;5.798;2023-11-18T14:46:52;1.77;;;0.88;;
35126;SDS011;21300;52.006;5.798;2023-11-18T14:49:19;0.55;;;0.52;;
35126;SDS011;21300;52.006;5.798;2023-11-18T14:51:45;1.33;;;1.13;;
35126;SDS011;21300;52.006;5.798;2023-11-18T14:54:11;0.82;;;0.60;;
35126;SDS011;21300;52.006;5.798;2023-11-18T14:56:37;1.63;;;0.70;;
35126;SDS011;21300;52.006;5.798;2023-11-18T14:59:03;1.30;;;0.60;;
35126;SDS011;21300;52.006;5.798;2023-11-18T15:01:30;0.85;;;0.57;;
35126;SDS011;21300;52.006;5.798;2023-11-18T15:03:55;1.98;;;0.75;;
35126;SDS011;21300;52.006;5.798;2023-11-18T15:06:25;0.98;;;0.60;;
35126;SDS011;21300;52.006;5.798;2023-11-18T15:08:54;0.80;;;0.40;;
35126;SDS011;21300;52.006;5.798;2023-11-18T15:11:22;1.38;;;0.90;;
35126;SDS011;21300;52.006;5.798;2023-11-18T15:13:48;1.95;;;0.88;;
35126;SDS011;21300;52.006;5.798;2023-11-18T15:16:17;1.77;;;0.80;;
35126;SDS011;21300;52.006;5.798;2023-11-18T15:18:43;1.17;;;0.88;;
35126;SDS011;21300;52.006;5.798;2023-11-18T15:21:12;1.48;;;0.77;;
35126;SDS011;21300;52.006;5.798;2023-11-18T15:23:40;1.63;;;0.60;;
35126;SDS011;21300;52.006;5.798;2023-11-18T15:26:06;1.05;;;0.70;;
35126;SDS011;21300;52.006;5.798;2023-11-18T15:28:33;1.48;;;0.68;;
35126;SDS011;21300;52.006;5.798;2023-11-18T15:31:00;2.10;;;1.00;;
35126;SDS011;21300;52.006;5.798;2023-11-18T15:33:27;1.65;;;0.70;;
35126;SDS011;21300;52.006;5.798;2023-11-18T15:35:53;1.75;;;0.70;;
35126;SDS011;21300;52.006;5.798;2023-11-18T15:38:19;1.08;;;0.82;;
35126;SDS011;21300;52.006;5.798;2023-11-18T15:40:47;1.20;;;0.52;;
35126;SDS011;21300;52.006;5.798;2023-11-18T15:43:14;1.73;;;0.90;;
35126;SDS011;21300;52.006;5.798;2023-11-18T15:45:41;1.88;;;0.98;;
35126;SDS011;21300;52.006;5.798;2023-11-18T15:48:09;0.95;;;0.70;;
35126;SDS011;21300;52.006;5.798;2023-11-18T15:50:35;0.50;;;0.35;;
35126;SDS011;21300;52.006;5.798;2023-11-18T15:53:02;0.80;;;0.50;;
35126;SDS011;21300;52.006;5.798;2023-11-18T15:55:28;1.40;;;0.80;;
35126;SDS011;21300;52.006;5.798;2023-11-18T15:57:54;1.55;;;0.80;;
35126;SDS011;21300;52.006;5.798;2023-11-18T16:00:20;1.98;;;0.80;;
35126;SDS011;21300;52.006;5.798;2023-11-18T16:02:50;1.25;;;0.80;;
35126;SDS011;21300;52.006;5.798;2023-11-18T16:05:17;1.63;;;0.80;;
35126;SDS011;21300;52.006;5.798;2023-11-18T16:07:45;1.58;;;0.90;;
35126;SDS011;21300;52.006;5.798;2023-11-18T16:10:19;0.65;;;0.50;;
35126;SDS011;21300;52.006;5.798;2023-11-18T16:12:52;1.10;;;0.60;;
35126;SDS011;21300;52.006;5.798;2023-11-18T16:15:22;1.10;;;0.52;;
35126;SDS011;21300;52.006;5.798;2023-11-18T16:17:53;1.70;;;0.90;;
35126;SDS011;21300;52.006;5.798;2023-11-18T16:20:21;1.00;;;0.70;;
35126;SDS011;21300;52.006;5.798;2023-11-18T16:22:50;1.35;;;0.73;;
35126;SDS011;21300;52.006;5.798;2023-11-18T16:25:17;1.70;;;1.15;;
35126;SDS011;21300;52.006;5.798;2023-11-18T16:27:49;1.52;;;1.00;;
35126;SDS011;21300;52.006;5.798;2023-11-18T16:30:16;1.63;;;0.80;;
35126;SDS011;21300;52.006;5.798;2023-11-18T16:32:43;0.70;;;0.57;;
35126;SDS011;21300;52.006;5.798;2023-11-18T16:35:10;1.23;;;0.70;;
35126;SDS011;21300;52.006;5.798;2023-11-18T16:37:39;1.88;;;0.55;;
35126;SDS011;21300;52.006;5.798;2023-11-18T16:40:05;0.75;;;0.50;;
35126;SDS011;21300;52.006;5.798;2023-11-18T16:42:31;1.88;;;1.10;;
35126;SDS011;21300;52.006;5.798;2023-11-18T16:44:57;1.25;;;0.80;;
35126;SDS011;21300;52.006;5.798;2023-11-18T16:47:24;2.55;;;1.25;;
35126;SDS011;21300;52.006;5.798;2023-11-18T16:49:52;1.42;;;1.00;;
35126;SDS011;21300;52.006;5.798;2023-11-18T16:52:18;2.70;;;1.30;;
35126;SDS011;21300;52.006;5.798;2023-11-18T16:54:48;1.70;;;0.80;;
35126;SDS011;21300;52.006;5.798;2023-11-18T16:57:13;1.80;;;1.05;;
35126;SDS011;21300;52.006;5.798;2023-11-18T16:59:39;1.92;;;1.00;;
35126;SDS011;21300;52.006;5.798;2023-11-18T17:02:04;1.85;;;1.17;;
35126;SDS011;21300;52.006;5.798;2023-11-18T17:04:31;1.90;;;1.10;;
35126;SDS011;21300;52.006;5.798;2023-11-18T17:06:57;1.00;;;0.63;;
35126;SDS011;21300;52.006;5.798;2023-11-18T17:09:23;1.38;;;0.90;;
35126;SDS011;21300;52.006;5.798;2023-11-18T17:11:49;1.65;;;1.23;;
35126;SDS011;21300;52.006;5.798;2023-11-18T17:14:14;2.17;;;1.15;;
35126;SDS011;21300;52.006;5.798;2023-11-18T17:16:40;2.55;;;1.10;;
35126;SDS011;21300;52.006;5.798;2023-11-18T17:19:09;1.05;;;0.85;;
35126;SDS011;21300;52.006;5.798;2023-11-18T17:21:35;1.05;;;0.85;;